createdAt,value
2022-11-25T00:01:31.821Z,2.79
2022-11-25T00:03:59.289Z,2.75
2022-11-25T00:06:27.599Z,2.57
2022-11-25T00:08:55.898Z,2.91
2022-11-25T00:11:22.647Z,3.12
2022-11-25T00:13:50.627Z,3.09
2022-11-25T00:16:19.879Z,3.13
2022-11-25T00:18:48.160Z,3.08
2022-11-25T00:21:16.585Z,3.10
2022-11-25T00:23:43.256Z,2.98
2022-11-25T00:26:12.138Z,3.02
2022-11-25T00:28:40.361Z,3.06
2022-11-25T00:31:12.735Z,3.04
2022-11-25T00:33:41.082Z,3.02
2022-11-25T00:36:15.318Z,2.99
2022-11-25T00:38:42.143Z,3.00
2022-11-25T00:41:08.680Z,2.90
2022-11-25T00:43:35.263Z,3.01
2022-11-25T00:46:01.885Z,3.02
2022-11-25T00:48:30.161Z,2.90
2022-11-25T00:50:56.681Z,3.03
2022-11-25T00:53:23.909Z,3.05
2022-11-25T00:55:50.505Z,3.07
2022-11-25T00:58:17.136Z,3.19
2022-11-25T01:00:43.679Z,3.16
2022-11-25T01:03:11.053Z,3.29
2022-11-25T01:05:38.903Z,3.37
2022-11-25T01:08:05.608Z,3.43
2022-11-25T01:10:32.108Z,3.46
2022-11-25T01:12:59.445Z,3.48
2022-11-25T01:15:26.440Z,3.51
2022-11-25T01:17:53.035Z,3.23
2022-11-25T01:20:19.572Z,3.50
2022-11-25T01:22:47.484Z,3.57
2022-11-25T01:25:14.004Z,3.64
2022-11-25T01:27:40.586Z,3.73
2022-11-25T01:30:09.845Z,3.74
2022-11-25T01:32:36.595Z,3.98
2022-11-25T01:35:03.803Z,4.08
2022-11-25T01:37:30.935Z,4.20
2022-11-25T01:39:58.780Z,4.39
2022-11-25T01:42:29.290Z,4.54
2022-11-25T01:45:37.668Z,4.82
2022-11-25T01:48:12.532Z,4.65
2022-11-25T01:50:41.679Z,4.84
2022-11-25T01:53:10.594Z,5.08
2022-11-25T01:55:40.564Z,5.09
2022-11-25T01:58:10.088Z,5.39
2022-11-25T02:00:38.992Z,5.47
2022-11-25T02:03:07.078Z,5.53
2022-11-25T02:05:40.467Z,5.56
2022-11-25T02:08:07.723Z,5.82
2022-11-25T02:10:38.156Z,5.91
2022-11-25T02:13:04.993Z,6.02
2022-11-25T02:15:34.000Z,6.08
2022-11-25T02:18:03.483Z,6.29
2022-11-25T02:20:30.153Z,6.24
2022-11-25T02:23:07.246Z,6.30
2022-11-25T02:25:37.616Z,6.36
2022-11-25T02:28:12.209Z,6.42
2022-11-25T02:30:39.862Z,6.46
2022-11-25T02:33:07.018Z,6.45
2022-11-25T02:35:35.732Z,6.46
2022-11-25T02:38:07.334Z,6.47
2022-11-25T02:40:40.542Z,6.48
2022-11-25T02:43:08.914Z,6.48
2022-11-25T02:45:55.214Z,6.52
2022-11-25T02:48:39.777Z,6.60
2022-11-25T02:51:11.020Z,6.54
2022-11-25T02:53:37.727Z,6.70
2022-11-25T02:56:06.916Z,6.75
2022-11-25T02:58:33.701Z,6.87
2022-11-25T03:01:00.373Z,6.93
2022-11-25T03:03:27.358Z,7.02
2022-11-25T03:05:54.289Z,7.04
2022-11-25T03:08:21.034Z,7.00
2022-11-25T03:10:48.505Z,7.10
2022-11-25T03:13:18.010Z,7.14
2022-11-25T03:15:44.659Z,7.17
2022-11-25T03:18:12.190Z,6.96
2022-11-25T03:20:39.019Z,7.09
2022-11-25T03:23:06.278Z,7.01
2022-11-25T03:25:34.563Z,7.22
2022-11-25T03:28:01.525Z,7.11
2022-11-25T03:30:30.840Z,7.19
2022-11-25T03:32:59.435Z,7.04
2022-11-25T03:35:27.357Z,7.21
2022-11-25T03:37:53.888Z,7.24
2022-11-25T03:40:20.671Z,7.27
2022-11-25T03:42:47.853Z,7.08
2022-11-25T03:45:16.179Z,7.18
2022-11-25T03:47:46.472Z,7.32
2022-11-25T03:50:14.640Z,7.25
2022-11-25T03:52:41.437Z,7.28
2022-11-25T03:55:10.469Z,7.30
2022-11-25T03:57:37.493Z,7.07
2022-11-25T04:00:07.567Z,7.23
2022-11-25T04:02:45.885Z,7.21
2022-11-25T04:05:14.428Z,7.29
2022-11-25T04:07:41.029Z,7.27
2022-11-25T04:10:09.493Z,7.32
2022-11-25T04:12:36.168Z,7.43
2022-11-25T04:15:08.521Z,7.45
2022-11-25T04:17:36.439Z,7.41
2022-11-25T04:20:05.589Z,6.74
2022-11-25T04:22:32.308Z,7.32
2022-11-25T04:25:00.770Z,7.30
2022-11-25T04:27:28.662Z,7.28
2022-11-25T04:29:55.314Z,7.33
2022-11-25T04:32:22.463Z,7.38
2022-11-25T04:34:49.397Z,7.36
2022-11-25T04:37:17.417Z,7.25
2022-11-25T04:39:44.066Z,7.42
2022-11-25T04:42:17.168Z,7.44
2022-11-25T04:44:55.914Z,7.38
2022-11-25T04:47:31.489Z,7.27
2022-11-25T04:49:58.313Z,7.33
2022-11-25T04:52:26.984Z,7.36
2022-11-25T04:54:53.857Z,7.35
2022-11-25T04:57:20.873Z,7.36
2022-11-25T04:59:48.233Z,7.35
2022-11-25T05:02:17.010Z,7.32
2022-11-25T05:04:55.027Z,7.35
2022-11-25T05:07:24.944Z,7.18
2022-11-25T05:09:55.163Z,7.29
2022-11-25T05:12:44.081Z,7.31
2022-11-25T05:15:15.476Z,6.62
2022-11-25T05:17:45.139Z,6.62
2022-11-25T05:20:13.329Z,7.12
2022-11-25T05:22:40.080Z,7.11
2022-11-25T05:25:13.976Z,7.39
2022-11-25T05:27:50.624Z,7.29
2022-11-25T05:30:17.469Z,7.27
2022-11-25T05:32:44.006Z,7.25
2022-11-25T05:35:10.907Z,7.25
2022-11-25T05:37:39.671Z,7.28
2022-11-25T05:40:07.990Z,7.25
2022-11-25T05:43:00.381Z,7.21
2022-11-25T05:45:28.736Z,7.20
2022-11-25T05:47:55.963Z,7.22
2022-11-25T05:50:25.701Z,7.24
2022-11-25T05:53:13.077Z,7.27
2022-11-25T05:55:41.007Z,7.26
2022-11-25T05:58:17.404Z,7.25
2022-11-25T06:00:50.137Z,7.23
2022-11-25T06:03:17.291Z,7.24
2022-11-25T06:05:44.437Z,7.11
2022-11-25T06:08:11.621Z,7.11
2022-11-25T06:10:38.910Z,7.08
2022-11-25T06:13:05.469Z,7.28
2022-11-25T06:15:33.471Z,7.28
2022-11-25T06:18:00.396Z,7.28
2022-11-25T06:20:29.010Z,7.22
2022-11-25T06:22:57.240Z,7.32
2022-11-25T06:25:30.091Z,7.27
2022-11-25T06:28:12.447Z,7.37
2022-11-25T06:30:45.019Z,7.32
2022-11-25T06:33:18.347Z,7.30
2022-11-25T06:35:46.764Z,7.09
2022-11-25T06:38:13.357Z,7.37
2022-11-25T06:40:39.997Z,7.35
2022-11-25T06:43:06.504Z,7.31
2022-11-25T06:45:33.080Z,7.31
2022-11-25T06:48:01.002Z,7.39
2022-11-25T06:50:27.877Z,7.39
2022-11-25T06:52:54.393Z,7.38
2022-11-25T06:55:21.094Z,7.39
2022-11-25T06:57:47.610Z,7.38
2022-11-25T07:00:14.959Z,7.36
2022-11-25T07:02:46.615Z,7.35
2022-11-25T07:05:16.692Z,7.39
2022-11-25T07:07:43.263Z,7.40
2022-11-25T07:10:10.438Z,7.26
2022-11-25T07:12:36.967Z,7.39
2022-11-25T07:15:04.206Z,7.38
2022-11-25T07:17:30.727Z,7.35
2022-11-25T07:19:57.284Z,7.36
2022-11-25T07:22:25.170Z,7.38
2022-11-25T07:24:51.760Z,7.38
2022-11-25T07:27:18.309Z,7.36
2022-11-25T07:29:58.241Z,7.37
2022-11-25T07:32:33.209Z,7.36
2022-11-25T07:34:59.724Z,7.36
2022-11-25T07:37:27.589Z,7.33
2022-11-25T07:39:54.135Z,7.31
2022-11-25T07:42:20.653Z,7.30
2022-11-25T07:44:48.278Z,7.28
2022-11-25T07:47:37.525Z,7.27
2022-11-25T07:50:04.748Z,7.22
2022-11-25T07:52:32.624Z,7.19
2022-11-25T07:54:59.220Z,7.12
2022-11-25T07:57:25.701Z,7.05
2022-11-25T07:59:52.251Z,7.00
2022-11-25T08:02:18.856Z,6.94
2022-11-25T08:04:45.473Z,6.89
2022-11-25T08:07:12.014Z,6.87
2022-11-25T08:09:40.172Z,6.85
2022-11-25T08:12:06.752Z,6.65
2022-11-25T08:14:33.423Z,6.94
2022-11-25T08:16:59.916Z,6.98
2022-11-25T08:19:31.313Z,7.02
2022-11-25T08:21:58.265Z,7.07
2022-11-25T08:24:24.823Z,7.12
2022-11-25T08:26:52.763Z,7.18
2022-11-25T08:29:19.541Z,7.29
2022-11-25T08:31:46.695Z,7.36
2022-11-25T08:34:18.599Z,7.34
2022-11-25T08:36:48.536Z,7.34
2022-11-25T08:39:50.630Z,7.28
2022-11-25T08:42:05.094Z,7.21
2022-11-25T08:44:31.833Z,7.22
2022-11-25T08:46:58.445Z,7.25
2022-11-25T08:49:25.062Z,7.16
2022-11-25T08:51:51.559Z,7.33
2022-11-25T08:54:18.099Z,7.38
2022-11-25T08:56:44.666Z,7.45
2022-11-25T08:59:12.530Z,7.53
2022-11-25T09:01:39.113Z,7.65
2022-11-25T09:04:05.853Z,7.59
2022-11-25T09:06:32.369Z,7.80
2022-11-25T09:09:00.148Z,7.88
2022-11-25T09:11:28.022Z,7.88
2022-11-25T09:13:54.662Z,7.90
2022-11-25T09:16:22.908Z,7.87
2022-11-25T09:18:54.212Z,7.90
2022-11-25T09:21:23.289Z,7.94
2022-11-25T09:23:50.077Z,7.94
2022-11-25T09:26:20.941Z,8.01
2022-11-25T09:28:47.440Z,8.13
2022-11-25T09:31:14.074Z,8.15
2022-11-25T09:33:42.183Z,8.26
2022-11-25T09:36:09.489Z,8.31
2022-11-25T09:38:40.244Z,8.34
2022-11-25T09:41:27.745Z,8.36
2022-11-25T09:44:06.029Z,8.41
2022-11-25T09:46:49.500Z,8.48
2022-11-25T09:49:46.561Z,8.53
2022-11-25T09:52:21.853Z,8.58
2022-11-25T09:54:55.358Z,8.65
2022-11-25T09:57:26.790Z,8.73
2022-11-25T10:00:05.259Z,8.77
2022-11-25T10:02:44.566Z,8.82
2022-11-25T10:05:16.035Z,8.90
2022-11-25T10:07:46.716Z,8.94
2022-11-25T10:10:19.317Z,9.01
2022-11-25T10:12:48.762Z,9.04
2022-11-25T10:15:20.025Z,9.10
2022-11-25T10:17:49.044Z,9.17
2022-11-25T10:20:22.387Z,9.22
2022-11-25T10:22:51.837Z,9.21
2022-11-25T10:25:20.426Z,9.36
2022-11-25T10:27:52.721Z,9.41
2022-11-25T10:30:21.897Z,9.44
2022-11-25T10:32:54.626Z,9.63
2022-11-25T10:35:30.887Z,9.73
2022-11-25T10:38:01.604Z,9.76
2022-11-25T10:40:28.365Z,9.84
2022-11-25T10:42:54.886Z,9.97
2022-11-25T10:45:28.554Z,10.02
2022-11-25T10:48:07.791Z,10.24
2022-11-25T10:50:42.332Z,10.36
2022-11-25T10:53:13.112Z,10.40
2022-11-25T10:55:39.731Z,10.49
2022-11-25T10:58:25.836Z,10.62
2022-11-25T11:01:02.731Z,10.79
2022-11-25T11:03:29.423Z,10.91
2022-11-25T11:05:57.329Z,11.07
2022-11-25T11:08:26.698Z,11.21
2022-11-25T11:11:14.317Z,11.29
2022-11-25T11:13:41.454Z,11.36
2022-11-25T11:16:25.551Z,11.55
2022-11-25T11:18:52.725Z,11.52
2022-11-25T11:21:29.058Z,11.62
2022-11-25T11:23:56.213Z,11.60
2022-11-25T11:26:25.665Z,11.77
2022-11-25T11:29:01.231Z,11.66
2022-11-25T11:31:33.299Z,11.83
2022-11-25T11:34:11.570Z,11.79
2022-11-25T11:36:54.026Z,11.85
2022-11-25T11:39:40.392Z,11.83
2022-11-25T11:42:13.903Z,11.73
2022-11-25T11:44:57.541Z,11.72
2022-11-25T11:47:36.955Z,11.75
2022-11-25T11:50:22.595Z,11.78
2022-11-25T11:52:57.455Z,11.56
2022-11-25T11:55:38.752Z,11.88
2022-11-25T11:58:15.863Z,12.03
2022-11-25T12:00:50.953Z,12.26
2022-11-25T12:03:21.743Z,12.39
2022-11-25T12:05:49.544Z,12.50
2022-11-25T12:08:26.745Z,12.35
2022-11-25T12:10:56.257Z,12.50
2022-11-25T12:13:31.108Z,12.48
2022-11-25T12:16:04.166Z,12.30
2022-11-25T12:18:44.757Z,12.39
2022-11-25T12:21:22.192Z,12.46
2022-11-25T12:23:58.286Z,12.39
2022-11-25T12:26:30.932Z,12.34
2022-11-25T12:29:02.482Z,12.39
2022-11-25T12:31:36.943Z,12.20
2022-11-25T12:34:11.711Z,12.18
2022-11-25T12:36:40.623Z,12.15
2022-11-25T12:39:18.726Z,12.20
2022-11-25T12:41:50.979Z,12.22
2022-11-25T12:44:22.302Z,12.32
2022-11-25T12:46:50.492Z,12.16
2022-11-25T12:49:20.311Z,12.31
2022-11-25T12:52:11.005Z,12.33
2022-11-25T12:55:04.293Z,12.31
2022-11-25T12:57:58.824Z,12.21
2022-11-25T13:00:47.283Z,12.19
2022-11-25T13:03:37.787Z,12.19
2022-11-25T13:06:23.627Z,12.17
2022-11-25T13:08:56.812Z,12.24
2022-11-25T13:11:56.675Z,12.12
2022-11-25T13:14:28.719Z,12.19
2022-11-25T13:16:57.401Z,12.10
2022-11-25T13:19:24.470Z,12.22
2022-11-25T13:21:59.403Z,12.24
2022-11-25T13:24:31.563Z,12.23
2022-11-25T13:27:00.458Z,12.08
2022-11-25T13:30:01.247Z,12.25
2022-11-25T13:32:39.943Z,12.42
2022-11-25T13:35:49.248Z,12.76
2022-11-25T13:38:57.389Z,12.95
2022-11-25T13:41:36.490Z,13.04
2022-11-25T13:44:17.955Z,13.11
2022-11-25T13:46:47.573Z,13.11
2022-11-25T13:49:31.979Z,13.21
2022-11-25T13:52:01.995Z,13.17
2022-11-25T13:54:36.604Z,13.02
2022-11-25T13:57:19.644Z,12.82
2022-11-25T13:59:56.036Z,12.57
2022-11-25T14:02:43.155Z,12.78
2022-11-25T14:05:34.182Z,12.62
2022-11-25T14:08:11.677Z,12.59
2022-11-25T14:10:45.276Z,12.50
2022-11-25T14:13:28.016Z,12.39
2022-11-25T14:16:11.745Z,12.35
2022-11-25T14:21:55.184Z,12.21
2022-11-25T14:24:31.028Z,12.22
2022-11-25T14:26:59.873Z,11.87
2022-11-25T14:29:32.430Z,12.05
2022-11-25T14:32:07.326Z,11.92
2022-11-25T14:34:38.992Z,11.96
2022-11-25T14:37:13.162Z,11.93
2022-11-25T14:39:43.747Z,11.63
2022-11-25T14:42:13.417Z,11.61
2022-11-25T14:44:47.879Z,11.63
2022-11-25T14:47:21.683Z,11.65
2022-11-25T14:50:00.113Z,11.57
2022-11-25T14:52:36.952Z,11.47
2022-11-25T14:55:06.132Z,11.52
2022-11-25T14:57:35.727Z,11.26
2022-11-25T15:00:06.753Z,11.41
2022-11-25T15:02:37.065Z,11.36
2022-11-25T15:05:16.397Z,11.31
2022-11-25T15:07:57.139Z,11.25
2022-11-25T15:10:32.621Z,11.19
2022-11-25T15:13:00.465Z,11.12
2022-11-25T15:15:27.589Z,10.92
2022-11-25T15:17:55.557Z,10.92
2022-11-25T15:20:25.516Z,10.74
2022-11-25T15:22:52.977Z,10.57
2022-11-25T15:25:19.618Z,10.36
2022-11-25T15:27:49.183Z,9.94
2022-11-25T15:30:20.807Z,10.14
2022-11-25T15:32:48.590Z,10.03
2022-11-25T15:35:19.838Z,9.92
2022-11-25T15:37:46.707Z,9.83
2022-11-25T15:40:34.356Z,9.73
2022-11-25T15:43:04.121Z,9.55
2022-11-25T15:45:37.313Z,9.66
2022-11-25T15:48:04.641Z,9.64
2022-11-25T15:50:33.202Z,9.57
2022-11-25T15:53:00.669Z,9.32
2022-11-25T15:55:31.412Z,9.42
2022-11-25T15:58:04.675Z,9.38
2022-11-25T16:00:31.483Z,9.35
2022-11-25T16:02:58.227Z,9.19
2022-11-25T16:05:37.352Z,9.26
2022-11-25T16:08:27.565Z,9.18
2022-11-25T16:10:58.799Z,9.14
2022-11-25T16:13:35.604Z,9.15
2022-11-25T16:16:28.114Z,9.18
2022-11-25T16:19:12.464Z,9.17
2022-11-25T16:22:05.921Z,9.18
2022-11-25T16:24:40.209Z,9.18
2022-11-25T16:27:16.403Z,9.04
2022-11-25T16:29:49.437Z,9.13
2022-11-25T16:32:18.237Z,9.07
2022-11-25T16:34:45.527Z,9.14
2022-11-25T16:37:13.560Z,8.91
2022-11-25T16:39:40.349Z,8.73
2022-11-25T16:42:07.684Z,9.08
2022-11-25T16:44:36.164Z,9.09
2022-11-25T16:47:02.988Z,9.08
2022-11-25T16:49:30.668Z,9.05
2022-11-25T16:51:57.515Z,8.92
2022-11-25T16:54:25.509Z,8.98
2022-11-25T16:56:54.410Z,8.95
2022-11-25T16:59:27.968Z,8.95
2022-11-25T17:01:54.848Z,8.94
2022-11-25T17:04:21.991Z,8.95
2022-11-25T17:07:16.344Z,8.88
2022-11-25T17:09:36.834Z,8.76
2022-11-25T17:12:05.809Z,8.81
2022-11-25T17:14:34.541Z,8.75
2022-11-25T17:17:03.405Z,8.77
2022-11-25T17:19:30.411Z,8.74
2022-11-25T17:21:57.012Z,8.74
2022-11-25T17:24:24.905Z,8.71
2022-11-25T17:26:55.803Z,8.67
2022-11-25T17:29:27.809Z,8.59
2022-11-25T17:31:58.386Z,8.52
2022-11-25T17:34:25.455Z,8.33
2022-11-25T17:36:52.135Z,8.51
2022-11-25T17:39:18.760Z,8.47
2022-11-25T17:41:47.442Z,8.45
2022-11-25T17:44:23.784Z,8.42
2022-11-25T17:46:50.636Z,8.42
2022-11-25T17:49:17.399Z,8.41
2022-11-25T17:51:44.037Z,8.43
2022-11-25T17:54:11.375Z,8.42
2022-11-25T17:56:39.406Z,8.35
2022-11-25T17:59:11.695Z,8.16
2022-11-25T18:01:40.029Z,8.23
2022-11-25T18:04:16.346Z,8.30
2022-11-25T18:06:43.197Z,8.34
2022-11-25T18:09:10.030Z,8.15
2022-11-25T18:11:41.308Z,8.33
2022-11-25T18:14:13.945Z,8.16
2022-11-25T18:16:42.456Z,8.04
2022-11-25T18:19:11.551Z,8.13
2022-11-25T18:21:38.538Z,8.28
2022-11-25T18:24:05.905Z,8.16
2022-11-25T18:26:32.826Z,8.29
2022-11-25T18:29:01.191Z,8.33
2022-11-25T18:31:28.431Z,8.35
2022-11-25T18:33:56.313Z,8.33
2022-11-25T18:36:22.934Z,8.34
2022-11-25T18:38:49.478Z,8.32
2022-11-25T18:41:20.998Z,8.13
2022-11-25T18:43:47.650Z,8.32
2022-11-25T18:46:14.716Z,8.30
2022-11-25T18:48:41.447Z,8.34
2022-11-25T18:51:11.689Z,8.30
2022-11-25T18:53:38.302Z,8.28
2022-11-25T18:56:05.135Z,8.34
2022-11-25T18:58:31.705Z,8.33
2022-11-25T19:01:02.561Z,8.33
2022-11-25T19:03:29.250Z,8.26
2022-11-25T19:05:56.003Z,8.32
2022-11-25T19:08:24.013Z,8.33
2022-11-25T19:10:51.281Z,8.34
2022-11-25T19:13:21.588Z,8.33
2022-11-25T19:15:48.410Z,8.30
2022-11-25T19:18:23.905Z,8.40
2022-11-25T19:20:50.581Z,8.42
2022-11-25T19:23:18.526Z,8.41
2022-11-25T19:25:46.923Z,8.48
2022-11-25T19:28:14.835Z,8.39
2022-11-25T19:30:42.012Z,8.47
2022-11-25T19:33:14.122Z,8.46
2022-11-25T19:35:40.905Z,8.42
2022-11-25T19:38:13.349Z,8.24
2022-11-25T19:40:39.945Z,8.33
2022-11-25T19:43:07.887Z,8.16
2022-11-25T19:45:34.932Z,8.37
2022-11-25T19:48:05.937Z,8.36
2022-11-25T19:50:34.799Z,8.26
2022-11-25T19:53:01.330Z,8.29
2022-11-25T19:55:28.223Z,8.28
2022-11-25T19:57:55.083Z,8.25
2022-11-25T20:00:24.110Z,7.94
2022-11-25T20:02:52.761Z,8.15
2022-11-25T20:05:22.603Z,8.09
2022-11-25T20:07:49.161Z,8.06
2022-11-25T20:10:18.589Z,8.03
2022-11-25T20:12:45.269Z,8.01
2022-11-25T20:15:12.450Z,7.97
2022-11-25T20:17:42.937Z,7.97
2022-11-25T20:20:15.162Z,7.93
2022-11-25T20:22:48.130Z,7.94
2022-11-25T20:25:14.962Z,7.91
2022-11-25T20:27:41.769Z,7.81
2022-11-25T20:30:15.524Z,7.71
2022-11-25T20:32:43.477Z,7.85
2022-11-25T20:35:10.127Z,7.80
2022-11-25T20:37:38.159Z,7.79
2022-11-25T20:40:13.297Z,7.78
2022-11-25T20:42:40.118Z,7.72
2022-11-25T20:45:13.683Z,7.70
2022-11-25T20:47:40.402Z,7.63
2022-11-25T20:50:11.843Z,7.53
2022-11-25T20:52:38.488Z,7.45
2022-11-25T20:55:14.386Z,7.39
2022-11-25T20:57:41.013Z,7.35
2022-11-25T21:00:14.486Z,7.32
2022-11-25T21:02:41.060Z,7.30
2022-11-25T21:05:09.134Z,7.34
2022-11-25T21:07:35.880Z,7.18
2022-11-25T21:10:02.516Z,7.26
2022-11-25T21:12:29.101Z,7.17
2022-11-25T21:14:55.623Z,7.12
2022-11-25T21:17:22.181Z,7.12
2022-11-25T21:19:48.668Z,6.95
2022-11-25T21:22:16.632Z,7.00
2022-11-25T21:24:43.550Z,7.11
2022-11-25T21:27:14.431Z,7.13
2022-11-25T21:29:42.813Z,7.12
2022-11-25T21:32:20.185Z,7.07
2022-11-25T21:34:47.018Z,6.69
2022-11-25T21:37:13.703Z,7.04
2022-11-25T21:39:42.120Z,7.07
2022-11-25T21:42:18.318Z,7.09
2022-11-25T21:44:45.763Z,7.12
2022-11-25T21:47:13.449Z,7.14
2022-11-25T21:49:40.107Z,7.17
2022-11-25T21:52:06.612Z,7.24
2022-11-25T21:54:33.295Z,7.23
2022-11-25T21:57:01.207Z,7.27
2022-11-25T21:59:29.847Z,7.27
2022-11-25T22:01:56.683Z,6.79
2022-11-25T22:04:24.400Z,7.29
2022-11-25T22:06:51.051Z,7.30
2022-11-25T22:09:17.745Z,7.31
2022-11-25T22:11:47.140Z,7.36
2022-11-25T22:14:24.121Z,6.84
2022-11-25T22:16:51.676Z,7.40
2022-11-25T22:19:20.769Z,7.40
2022-11-25T22:21:47.469Z,7.42
2022-11-25T22:24:15.125Z,7.45
2022-11-25T22:26:42.802Z,7.23
2022-11-25T22:29:13.735Z,7.31
2022-11-25T22:31:42.437Z,7.38
2022-11-25T22:34:16.502Z,7.31
2022-11-25T22:36:43.647Z,7.50
2022-11-25T22:39:14.158Z,7.47
2022-11-25T22:41:42.101Z,7.38
2022-11-25T22:44:17.440Z,7.46
2022-11-25T22:46:46.338Z,7.44
2022-11-25T22:49:27.369Z,7.43
2022-11-25T22:51:54.225Z,7.20
2022-11-25T22:54:21.641Z,7.38
2022-11-25T22:56:48.229Z,7.34
2022-11-25T22:59:14.735Z,7.29
2022-11-25T23:01:41.496Z,7.24
2022-11-25T23:04:15.507Z,7.02
2022-11-25T23:06:42.085Z,6.99
2022-11-25T23:09:13.960Z,7.10
2022-11-25T23:11:40.629Z,7.01
2022-11-25T23:14:07.148Z,6.99
2022-11-25T23:16:33.741Z,6.24
2022-11-25T23:19:00.324Z,6.91
2022-11-25T23:21:28.263Z,6.92
2022-11-25T23:23:55.305Z,6.83
2022-11-25T23:26:22.686Z,6.57
2022-11-25T23:28:49.457Z,6.76
2022-11-25T23:31:16.743Z,6.64
2022-11-25T23:33:46.343Z,6.71
2022-11-25T23:36:15.640Z,6.62
2022-11-25T23:38:46.131Z,6.71
2022-11-25T23:41:14.790Z,6.74
2022-11-25T23:43:41.289Z,6.68
2022-11-25T23:46:12.755Z,6.65
2022-11-25T23:48:40.925Z,6.62
2022-11-25T23:51:08.564Z,6.60
2022-11-25T23:53:39.087Z,6.58
2022-11-25T23:56:07.882Z,6.57
2022-11-25T23:58:34.536Z,6.56
